createdAt,value
2023-04-16T00:01:51.670Z,26.45
2023-04-16T00:04:18.759Z,24.50
2023-04-16T00:06:45.932Z,23.60
2023-04-16T00:09:12.746Z,26.42
2023-04-16T00:11:39.544Z,23.45
2023-04-16T00:14:06.360Z,23.95
2023-04-16T00:16:33.364Z,24.00
2023-04-16T00:19:00.267Z,26.95
2023-04-16T00:21:27.088Z,26.65
2023-04-16T00:23:53.938Z,24.90
2023-04-16T00:26:21.202Z,25.73
2023-04-16T00:28:48.172Z,26.50
2023-04-16T00:31:15.094Z,24.63
2023-04-16T00:33:42.031Z,24.45
2023-04-16T00:36:09.702Z,24.10
2023-04-16T00:38:36.821Z,24.20
2023-04-16T00:41:03.768Z,26.27
2023-04-16T00:43:31.753Z,24.75
2023-04-16T00:45:59.247Z,25.40
2023-04-16T00:48:28.218Z,25.50
2023-04-16T00:50:55.927Z,24.88
2023-04-16T00:53:23.469Z,24.13
2023-04-16T00:55:51.064Z,27.48
2023-04-16T00:58:18.337Z,25.75
2023-04-16T01:00:45.374Z,27.23
2023-04-16T01:03:12.468Z,24.23
2023-04-16T01:05:39.646Z,24.95
2023-04-16T01:08:06.899Z,24.48
2023-04-16T01:10:33.815Z,26.45
2023-04-16T01:13:00.659Z,23.60
2023-04-16T01:15:27.563Z,25.27
2023-04-16T01:17:54.433Z,24.75
2023-04-16T01:20:21.348Z,25.45
2023-04-16T01:22:49.132Z,25.55
2023-04-16T01:25:16.425Z,26.00
2023-04-16T01:27:43.390Z,24.25
2023-04-16T01:30:10.568Z,25.38
2023-04-16T01:32:37.592Z,25.42
2023-04-16T01:35:04.724Z,24.75
2023-04-16T01:37:31.927Z,26.27
2023-04-16T01:39:58.802Z,27.80
2023-04-16T01:42:25.798Z,26.92
2023-04-16T01:44:52.741Z,25.00
2023-04-16T01:47:19.690Z,27.42
2023-04-16T01:49:48.226Z,25.42
2023-04-16T01:52:15.200Z,26.60
2023-04-16T01:54:42.137Z,27.30
2023-04-16T01:57:09.363Z,24.75
2023-04-16T01:59:36.181Z,25.52
2023-04-16T02:02:13.524Z,25.60
2023-04-16T02:04:42.149Z,24.60
2023-04-16T02:07:09.391Z,24.10
2023-04-16T02:09:37.751Z,25.90
2023-04-16T02:12:05.483Z,23.52
2023-04-16T02:14:33.845Z,23.75
2023-04-16T02:17:00.877Z,23.92
2023-04-16T02:19:27.832Z,26.10
2023-04-16T02:21:55.013Z,24.20
2023-04-16T02:24:22.081Z,26.52
2023-04-16T02:26:48.983Z,24.95
2023-04-16T02:29:16.586Z,24.33
2023-04-16T02:31:44.378Z,26.23
2023-04-16T02:34:11.385Z,24.85
2023-04-16T02:36:38.526Z,22.95
2023-04-16T02:39:05.373Z,23.45
2023-04-16T02:41:32.189Z,26.00
2023-04-16T02:43:59.079Z,24.80
2023-04-16T02:46:26.070Z,26.42
2023-04-16T02:48:53.267Z,24.70
2023-04-16T02:51:20.106Z,23.98
2023-04-16T02:53:46.992Z,24.10
2023-04-16T02:56:13.900Z,25.60
2023-04-16T02:58:40.876Z,27.08
2023-04-16T03:01:07.755Z,26.38
2023-04-16T03:03:34.623Z,25.95
2023-04-16T03:06:01.544Z,24.15
2023-04-16T03:08:28.409Z,23.67
2023-04-16T03:10:55.273Z,24.58
2023-04-16T03:13:22.410Z,26.42
2023-04-16T03:15:50.034Z,26.60
2023-04-16T03:18:17.012Z,25.00
2023-04-16T03:20:43.883Z,25.80
2023-04-16T03:23:10.867Z,26.25
2023-04-16T03:25:40.529Z,27.15
2023-04-16T03:28:07.400Z,25.17
2023-04-16T03:30:34.206Z,26.15
2023-04-16T03:33:01.292Z,26.40
2023-04-16T03:35:28.161Z,24.70
2023-04-16T03:37:55.047Z,25.02
2023-04-16T03:40:21.974Z,24.85
2023-04-16T03:42:48.831Z,24.80
2023-04-16T03:45:15.816Z,25.35
2023-04-16T03:47:42.698Z,24.58
2023-04-16T03:50:11.454Z,24.92
2023-04-16T03:52:38.419Z,23.83
2023-04-16T03:55:05.843Z,24.27
2023-04-16T03:57:32.758Z,25.38
2023-04-16T03:59:59.582Z,21.70
2023-04-16T04:02:27.278Z,25.25
2023-04-16T04:04:54.425Z,23.60
2023-04-16T04:07:21.289Z,25.42
2023-04-16T04:09:48.143Z,25.50
2023-04-16T04:12:15.014Z,23.77
2023-04-16T04:14:41.866Z,25.23
2023-04-16T04:17:09.323Z,22.88
2023-04-16T04:19:37.763Z,23.60
2023-04-16T04:24:32.485Z,24.77
2023-04-16T04:26:59.332Z,23.77
2023-04-16T04:29:26.183Z,24.92
2023-04-16T04:31:53.481Z,24.33
2023-04-16T04:34:20.648Z,25.02
2023-04-16T04:36:47.517Z,25.88
2023-04-16T04:39:14.330Z,23.30
2023-04-16T04:41:41.401Z,24.55
2023-04-16T04:44:08.179Z,25.98
2023-04-16T04:46:35.042Z,25.23
2023-04-16T04:49:01.882Z,25.67
2023-04-16T04:51:28.797Z,26.48
2023-04-16T04:53:55.701Z,25.75
2023-04-16T04:56:22.659Z,26.45
2023-04-16T04:58:52.511Z,27.38
2023-04-16T05:01:19.330Z,25.02
2023-04-16T05:03:46.351Z,25.88
2023-04-16T05:06:13.203Z,24.80
2023-04-16T05:08:40.032Z,25.35
2023-04-16T05:11:06.886Z,24.55
2023-04-16T05:13:33.718Z,25.05
2023-04-16T05:16:00.730Z,25.77
2023-04-16T05:18:27.782Z,25.17
2023-04-16T05:20:54.680Z,28.27
2023-04-16T05:23:21.533Z,28.20
2023-04-16T05:25:48.389Z,29.83
2023-04-16T05:28:15.195Z,26.67
2023-04-16T05:30:42.070Z,25.70
2023-04-16T05:33:09.013Z,28.98
2023-04-16T05:35:36.065Z,26.00
2023-04-16T05:38:04.438Z,26.73
2023-04-16T05:40:31.982Z,24.75
2023-04-16T05:42:58.804Z,27.30
2023-04-16T05:45:27.449Z,25.42
2023-04-16T05:47:55.064Z,26.83
2023-04-16T05:50:22.008Z,24.88
2023-04-16T05:52:48.881Z,25.65
2023-04-16T05:55:15.741Z,25.63
2023-04-16T05:57:42.705Z,22.35
2023-04-16T06:00:09.822Z,23.70
2023-04-16T06:02:36.784Z,26.83
2023-04-16T06:05:03.883Z,25.20
2023-04-16T06:07:31.049Z,22.42
2023-04-16T06:09:57.830Z,22.33
2023-04-16T06:12:24.645Z,28.27
2023-04-16T06:14:51.572Z,23.60
2023-04-16T06:17:19.412Z,23.27
2023-04-16T06:19:46.358Z,23.13
2023-04-16T06:22:13.257Z,25.13
2023-04-16T06:24:40.160Z,24.20
2023-04-16T06:27:06.959Z,26.08
2023-04-16T06:29:41.261Z,24.48
2023-04-16T06:32:09.012Z,26.23
2023-04-16T06:34:36.223Z,29.95
2023-04-16T06:37:03.051Z,26.67
2023-04-16T06:39:30.204Z,26.80
2023-04-16T06:41:57.484Z,22.98
2023-04-16T06:44:24.309Z,23.88
2023-04-16T06:46:51.620Z,23.02
2023-04-16T06:49:18.521Z,28.10
2023-04-16T06:51:45.518Z,22.75
2023-04-16T06:54:12.382Z,24.75
2023-04-16T06:56:39.239Z,21.73
2023-04-16T06:59:07.178Z,21.92
2023-04-16T07:01:34.447Z,20.55
2023-04-16T07:04:01.621Z,21.00
2023-04-16T07:06:28.579Z,20.02
2023-04-16T07:08:55.416Z,22.13
2023-04-16T07:11:22.586Z,21.33
2023-04-16T07:13:51.133Z,21.25
2023-04-16T07:16:18.592Z,23.00
2023-04-16T07:18:45.591Z,21.17
2023-04-16T07:21:12.419Z,20.02
2023-04-16T07:23:39.246Z,21.73
2023-04-16T07:26:06.230Z,22.05
2023-04-16T07:28:33.106Z,20.00
2023-04-16T07:31:00.399Z,20.63
2023-04-16T07:33:27.479Z,20.55
2023-04-16T07:35:54.461Z,21.08
2023-04-16T07:38:21.382Z,23.65
2023-04-16T07:40:48.270Z,20.20
2023-04-16T07:43:16.431Z,23.75
2023-04-16T07:45:43.425Z,23.45
2023-04-16T07:48:10.315Z,24.58
2023-04-16T07:50:37.287Z,26.27
2023-04-16T07:53:05.905Z,21.70
2023-04-16T07:55:32.772Z,21.77
2023-04-16T07:57:59.663Z,23.70
2023-04-16T08:00:26.682Z,23.55
2023-04-16T08:02:53.699Z,24.38
2023-04-16T08:05:21.046Z,20.15
2023-04-16T08:07:47.919Z,20.27
2023-04-16T08:10:14.815Z,21.02
2023-04-16T08:12:41.771Z,21.33
2023-04-16T08:15:09.014Z,18.42
2023-04-16T08:17:37.630Z,20.15
2023-04-16T08:20:05.869Z,20.50
2023-04-16T08:22:33.905Z,19.58
2023-04-16T08:25:01.046Z,19.20
2023-04-16T08:27:27.932Z,20.02
2023-04-16T08:29:54.802Z,20.63
2023-04-16T08:32:21.806Z,23.85
2023-04-16T08:34:48.748Z,20.30
2023-04-16T08:37:15.697Z,20.65
2023-04-16T08:39:42.619Z,20.13
2023-04-16T08:42:18.801Z,21.63
2023-04-16T08:44:50.984Z,18.88
2023-04-16T08:47:18.700Z,19.58
2023-04-16T08:49:46.374Z,20.52
2023-04-16T08:52:22.029Z,20.48
2023-04-16T08:55:00.340Z,20.08
2023-04-16T08:57:34.139Z,19.42
2023-04-16T09:00:01.423Z,19.85
2023-04-16T09:02:28.939Z,18.45
2023-04-16T09:04:59.860Z,20.35
2023-04-16T09:07:29.569Z,19.80
2023-04-16T09:09:59.519Z,20.13
2023-04-16T09:12:26.503Z,21.40
2023-04-16T09:14:53.669Z,19.50
2023-04-16T09:17:20.563Z,18.92
2023-04-16T09:19:47.567Z,19.23
2023-04-16T09:22:14.495Z,17.42
2023-04-16T09:24:42.041Z,19.75
2023-04-16T09:27:09.197Z,18.80
2023-04-16T09:29:40.168Z,17.77
2023-04-16T09:32:11.516Z,17.88
2023-04-16T09:34:58.840Z,19.35
2023-04-16T09:37:27.175Z,18.52
2023-04-16T09:40:04.839Z,18.85
2023-04-16T09:42:34.153Z,19.48
2023-04-16T09:45:02.788Z,19.83
2023-04-16T09:47:43.309Z,17.77
2023-04-16T09:50:17.761Z,17.58
2023-04-16T09:52:48.719Z,18.60
2023-04-16T09:55:15.540Z,18.33
2023-04-16T09:57:42.405Z,18.20
2023-04-16T10:00:10.441Z,19.13
2023-04-16T10:02:41.756Z,17.48
2023-04-16T10:05:09.732Z,17.23
2023-04-16T10:07:37.878Z,18.02
2023-04-16T10:10:05.376Z,19.27
2023-04-16T10:12:33.012Z,20.17
2023-04-16T10:15:00.052Z,17.30
2023-04-16T10:17:30.014Z,18.00
2023-04-16T10:19:58.626Z,16.77
2023-04-16T10:22:26.602Z,17.35
2023-04-16T10:24:54.875Z,17.80
2023-04-16T10:27:22.630Z,18.73
2023-04-16T10:29:50.079Z,17.48
2023-04-16T10:32:18.650Z,16.92
2023-04-16T10:34:46.193Z,18.60
2023-04-16T10:37:13.087Z,18.60
2023-04-16T10:39:40.109Z,16.70
2023-04-16T10:42:14.766Z,16.85
2023-04-16T10:44:44.583Z,17.55
2023-04-16T10:47:13.430Z,16.02
2023-04-16T10:49:41.204Z,16.83
2023-04-16T10:52:12.245Z,17.08
2023-04-16T10:54:40.265Z,17.10
2023-04-16T10:57:09.435Z,16.77
2023-04-16T10:59:37.929Z,16.83
2023-04-16T11:02:12.967Z,16.73
2023-04-16T11:04:42.859Z,16.98
2023-04-16T11:07:18.912Z,17.55
2023-04-16T11:10:02.519Z,16.85
2023-04-16T11:12:29.426Z,17.38
2023-04-16T11:15:02.224Z,16.55
2023-04-16T11:17:37.849Z,16.25
2023-04-16T11:20:19.150Z,16.27
2023-04-16T11:22:48.721Z,16.75
2023-04-16T11:25:26.774Z,15.93
2023-04-16T11:27:54.663Z,16.45
2023-04-16T11:30:39.054Z,17.40
2023-04-16T11:33:11.217Z,18.10
2023-04-16T11:35:39.563Z,16.92
2023-04-16T11:38:07.346Z,16.27
2023-04-16T11:40:34.835Z,18.30
2023-04-16T11:43:19.864Z,16.95
2023-04-16T11:46:12.928Z,17.23
2023-04-16T11:48:52.309Z,17.48
2023-04-16T11:51:20.694Z,17.27
2023-04-16T11:53:56.689Z,18.48
2023-04-16T11:56:32.380Z,17.55
2023-04-16T11:59:20.440Z,16.52
2023-04-16T12:01:57.928Z,16.30
2023-04-16T12:04:26.828Z,16.17
2023-04-16T12:07:11.354Z,16.13
2023-04-16T12:09:42.526Z,15.20
2023-04-16T12:12:30.740Z,14.82
2023-04-16T12:15:00.129Z,14.95
2023-04-16T12:17:27.112Z,15.45
2023-04-16T12:19:58.178Z,14.30
2023-04-16T12:22:28.153Z,14.70
2023-04-16T12:25:11.208Z,14.43
2023-04-16T12:27:54.122Z,14.05
2023-04-16T12:30:23.383Z,13.68
2023-04-16T12:32:52.520Z,13.93
2023-04-16T12:37:57.110Z,14.10
2023-04-16T12:40:23.924Z,14.35
2023-04-16T12:42:50.793Z,14.90
2023-04-16T12:45:17.668Z,14.55
2023-04-16T12:47:44.621Z,14.00
2023-04-16T12:50:11.583Z,14.55
2023-04-16T12:52:38.486Z,15.27
2023-04-16T12:55:05.973Z,15.38
2023-04-16T12:57:32.863Z,14.27
2023-04-16T12:59:59.725Z,14.10
2023-04-16T13:02:26.957Z,14.73
2023-04-16T13:04:54.634Z,14.70
2023-04-16T13:07:21.977Z,14.55
2023-04-16T13:09:49.018Z,14.23
2023-04-16T13:12:16.116Z,14.75
2023-04-16T13:14:45.024Z,14.85
2023-04-16T13:17:12.129Z,14.43
2023-04-16T13:19:38.968Z,14.55
2023-04-16T13:22:05.786Z,14.50
2023-04-16T13:24:32.661Z,15.23
2023-04-16T13:26:59.531Z,14.50
2023-04-16T13:29:27.197Z,14.75
2023-04-16T13:31:54.391Z,14.18
2023-04-16T13:34:21.577Z,13.15
2023-04-16T13:36:48.718Z,13.07
2023-04-16T13:39:15.907Z,12.93
2023-04-16T13:41:43.158Z,13.20
2023-04-16T13:44:10.037Z,13.55
2023-04-16T13:46:37.004Z,12.18
2023-04-16T13:49:03.977Z,12.57
2023-04-16T13:51:30.867Z,13.10
2023-04-16T13:53:57.860Z,11.75
2023-04-16T13:56:25.267Z,11.55
2023-04-16T13:58:52.294Z,11.80
2023-04-16T14:01:19.604Z,11.60
2023-04-16T14:03:48.422Z,11.65
2023-04-16T14:06:18.006Z,10.88
2023-04-16T14:08:45.573Z,10.63
2023-04-16T14:11:12.549Z,10.82
2023-04-16T14:13:39.453Z,10.80
2023-04-16T14:16:06.534Z,10.80
2023-04-16T14:18:33.421Z,10.30
2023-04-16T14:21:02.086Z,10.80
2023-04-16T14:23:28.991Z,10.50
2023-04-16T14:25:56.200Z,13.00
2023-04-16T14:28:23.082Z,10.60
2023-04-16T14:30:49.917Z,11.73
2023-04-16T14:33:16.743Z,11.65
2023-04-16T14:35:43.556Z,12.20
2023-04-16T14:38:11.497Z,12.35
2023-04-16T14:40:38.406Z,11.32
2023-04-16T14:43:05.420Z,11.88
2023-04-16T14:45:32.686Z,12.32
2023-04-16T14:47:59.610Z,12.13
2023-04-16T14:50:26.463Z,12.07
2023-04-16T14:52:54.568Z,12.75
2023-04-16T14:55:21.653Z,12.52
2023-04-16T14:57:48.552Z,12.98
2023-04-16T15:00:17.568Z,13.35
2023-04-16T15:02:46.151Z,12.77
2023-04-16T15:05:13.137Z,13.15
2023-04-16T15:07:40.171Z,13.68
2023-04-16T15:10:09.037Z,13.52
2023-04-16T15:12:36.016Z,12.70
2023-04-16T15:15:02.965Z,13.95
2023-04-16T15:17:29.897Z,13.15
2023-04-16T15:19:56.779Z,13.50
2023-04-16T15:22:23.895Z,13.30
2023-04-16T15:24:50.910Z,14.15
2023-04-16T15:27:18.174Z,13.32
2023-04-16T15:29:49.422Z,12.52
2023-04-16T15:32:16.646Z,13.77
2023-04-16T15:34:43.546Z,13.23
2023-04-16T15:37:10.353Z,13.65
2023-04-16T15:39:37.249Z,13.75
2023-04-16T15:42:07.694Z,14.18
2023-04-16T15:44:35.161Z,13.45
2023-04-16T15:47:02.015Z,13.00
2023-04-16T15:49:29.004Z,12.38
2023-04-16T15:51:56.438Z,11.52
2023-04-16T15:54:23.739Z,11.88
2023-04-16T15:56:51.280Z,11.68
2023-04-16T15:59:18.232Z,11.10
2023-04-16T16:01:45.122Z,11.63
2023-04-16T16:04:12.118Z,12.88
2023-04-16T16:06:39.175Z,11.35
2023-04-16T16:09:06.318Z,11.30
2023-04-16T16:11:33.258Z,11.30
2023-04-16T16:14:03.350Z,10.35
2023-04-16T16:16:30.764Z,11.68
2023-04-16T16:18:57.684Z,11.05
2023-04-16T16:21:24.630Z,10.82
2023-04-16T16:23:51.728Z,11.00
2023-04-16T16:26:20.566Z,11.10
2023-04-16T16:28:48.027Z,11.30
2023-04-16T16:31:14.926Z,11.30
2023-04-16T16:33:41.802Z,11.80
2023-04-16T16:36:12.386Z,11.55
2023-04-16T16:38:42.724Z,12.63
2023-04-16T16:41:09.705Z,11.77
2023-04-16T16:43:36.772Z,12.88
2023-04-16T16:46:04.798Z,12.77
2023-04-16T16:48:31.655Z,12.55
2023-04-16T16:50:58.588Z,13.13
2023-04-16T16:53:25.454Z,13.15
2023-04-16T16:55:52.315Z,13.98
2023-04-16T16:58:19.207Z,13.10
2023-04-16T17:00:46.270Z,13.50
2023-04-16T17:03:13.269Z,13.63
2023-04-16T17:05:40.626Z,13.15
2023-04-16T17:08:07.564Z,13.88
2023-04-16T17:10:35.919Z,14.77
2023-04-16T17:13:02.870Z,13.67
2023-04-16T17:15:29.796Z,14.20
2023-04-16T17:17:57.165Z,14.25
2023-04-16T17:20:24.155Z,13.60
2023-04-16T17:22:51.266Z,14.35
2023-04-16T17:25:18.235Z,14.18
2023-04-16T17:27:45.087Z,13.80
2023-04-16T17:30:12.241Z,14.45
2023-04-16T17:32:39.159Z,14.90
2023-04-16T17:35:06.926Z,13.85
2023-04-16T17:37:34.179Z,13.95
2023-04-16T17:40:01.179Z,14.38
2023-04-16T17:42:28.157Z,14.45
2023-04-16T17:44:55.088Z,14.32
2023-04-16T17:47:21.939Z,15.57
2023-04-16T17:49:48.871Z,14.63
2023-04-16T17:52:16.089Z,15.13
2023-04-16T17:54:43.093Z,14.43
2023-04-16T17:57:09.986Z,14.43
2023-04-16T17:59:36.848Z,14.13
2023-04-16T18:02:03.826Z,15.80
2023-04-16T18:04:31.272Z,14.73
2023-04-16T18:06:58.266Z,14.60
2023-04-16T18:09:25.703Z,14.95
2023-04-16T18:11:52.555Z,16.00
2023-04-16T18:14:21.312Z,15.07
2023-04-16T18:16:49.201Z,15.30
2023-04-16T18:19:16.641Z,15.18
2023-04-16T18:21:43.942Z,15.43
2023-04-16T18:24:11.537Z,17.08
2023-04-16T18:26:40.887Z,14.82
2023-04-16T18:29:09.119Z,15.25
2023-04-16T18:31:36.277Z,14.55
2023-04-16T18:34:03.205Z,14.90
2023-04-16T18:36:31.133Z,15.38
2023-04-16T18:39:02.270Z,16.13
2023-04-16T18:41:31.129Z,15.27
2023-04-16T18:43:58.204Z,14.85
2023-04-16T18:46:25.546Z,16.25
2023-04-16T18:48:52.496Z,16.55
2023-04-16T18:51:19.389Z,14.93
2023-04-16T18:53:46.359Z,17.33
2023-04-16T18:56:13.316Z,18.15
2023-04-16T18:58:40.186Z,15.73
2023-04-16T19:01:11.330Z,17.15
2023-04-16T19:03:38.931Z,16.92
2023-04-16T19:06:06.544Z,16.33
2023-04-16T19:08:33.566Z,17.25
2023-04-16T19:11:00.401Z,17.27
2023-04-16T19:13:27.357Z,16.73
2023-04-16T19:16:01.645Z,16.90
2023-04-16T19:18:28.898Z,17.48
2023-04-16T19:21:00.646Z,17.23
2023-04-16T19:23:28.144Z,17.63
2023-04-16T19:25:58.497Z,17.60
2023-04-16T19:28:25.941Z,16.80
2023-04-16T19:30:53.642Z,17.77
2023-04-16T19:33:20.716Z,18.42
2023-04-16T19:35:47.751Z,18.60
2023-04-16T19:38:14.802Z,20.35
2023-04-16T19:40:45.479Z,18.52
2023-04-16T19:43:12.715Z,18.58
2023-04-16T19:45:58.150Z,17.65
2023-04-16T19:48:25.013Z,18.80
2023-04-16T19:50:52.186Z,17.58
2023-04-16T19:53:19.048Z,16.75
2023-04-16T19:55:46.195Z,17.02
2023-04-16T19:58:14.518Z,17.98
2023-04-16T20:00:42.090Z,17.75
2023-04-16T20:03:09.674Z,18.55
2023-04-16T20:05:36.527Z,18.95
2023-04-16T20:08:03.694Z,19.13
2023-04-16T20:10:31.582Z,18.90
2023-04-16T20:12:58.790Z,19.30
2023-04-16T20:15:25.778Z,19.48
2023-04-16T20:17:53.387Z,19.25
2023-04-16T20:20:23.524Z,19.10
2023-04-16T20:22:50.693Z,19.05
2023-04-16T20:25:19.315Z,19.92
2023-04-16T20:27:46.342Z,20.52
2023-04-16T20:30:13.902Z,21.10
2023-04-16T20:32:40.891Z,21.15
2023-04-16T20:35:10.730Z,19.77
2023-04-16T20:37:38.623Z,20.33
2023-04-16T20:40:09.519Z,19.67
2023-04-16T20:42:36.470Z,19.50
2023-04-16T20:45:03.526Z,19.67
2023-04-16T20:47:30.503Z,19.15
2023-04-16T20:49:58.162Z,19.77
2023-04-16T20:52:25.032Z,20.35
2023-04-16T20:54:52.345Z,19.30
2023-04-16T20:57:19.460Z,19.40
2023-04-16T20:59:46.435Z,20.73
2023-04-16T21:02:14.241Z,19.23
2023-04-16T21:04:41.341Z,19.80
2023-04-16T21:07:08.313Z,20.75
2023-04-16T21:09:35.729Z,19.20
2023-04-16T21:12:02.917Z,18.27
2023-04-16T21:14:29.838Z,18.10
2023-04-16T21:16:56.706Z,18.38
2023-04-16T21:19:23.639Z,19.38
2023-04-16T21:21:50.704Z,18.05
2023-04-16T21:24:17.648Z,20.23
2023-04-16T21:26:44.504Z,17.17
2023-04-16T21:29:11.625Z,20.08
2023-04-16T21:31:38.777Z,18.23
2023-04-16T21:34:05.871Z,18.10
2023-04-16T21:36:34.037Z,18.90
2023-04-16T21:39:01.050Z,17.33
2023-04-16T21:41:28.054Z,18.70
2023-04-16T21:43:54.903Z,19.67
2023-04-16T21:46:21.833Z,17.60
2023-04-16T21:48:49.711Z,18.38
2023-04-16T21:51:16.724Z,17.95
2023-04-16T21:53:43.796Z,18.90
2023-04-16T21:56:10.751Z,18.27
2023-04-16T21:58:37.648Z,17.95
2023-04-16T22:01:04.657Z,18.17
2023-04-16T22:03:33.559Z,19.13
2023-04-16T22:06:01.646Z,19.15
2023-04-16T22:08:32.338Z,18.80
2023-04-16T22:11:01.947Z,19.73
2023-04-16T22:13:32.124Z,19.88
2023-04-16T22:16:01.407Z,20.15
2023-04-16T22:18:29.062Z,19.50
2023-04-16T22:20:56.275Z,19.60
2023-04-16T22:23:26.319Z,20.27
2023-04-16T22:25:55.430Z,20.13
2023-04-16T22:28:23.063Z,20.50
2023-04-16T22:30:50.133Z,19.17
2023-04-16T22:33:17.202Z,20.92
2023-04-16T22:35:44.264Z,19.95
2023-04-16T22:38:11.189Z,21.05
2023-04-16T22:40:38.122Z,21.45
2023-04-16T22:43:05.235Z,21.45
2023-04-16T22:45:32.196Z,20.88
2023-04-16T22:47:59.127Z,25.27
2023-04-16T22:50:26.101Z,23.55
2023-04-16T22:52:52.918Z,24.15
2023-04-16T22:55:19.884Z,27.05
2023-04-16T22:57:47.530Z,25.30
2023-04-16T23:00:17.977Z,24.90
2023-04-16T23:02:45.385Z,23.65
2023-04-16T23:05:12.431Z,23.83
2023-04-16T23:07:39.348Z,23.95
2023-04-16T23:10:08.388Z,24.10
2023-04-16T23:12:37.368Z,27.27
2023-04-16T23:15:06.482Z,25.50
2023-04-16T23:17:33.925Z,24.00
2023-04-16T23:20:01.223Z,27.45
2023-04-16T23:22:28.164Z,26.08
2023-04-16T23:24:55.226Z,25.92
2023-04-16T23:27:22.208Z,25.65
2023-04-16T23:29:49.123Z,25.70
2023-04-16T23:32:16.337Z,24.98
2023-04-16T23:34:43.222Z,26.63
2023-04-16T23:37:10.191Z,27.42
2023-04-16T23:39:37.108Z,27.48
2023-04-16T23:42:04.068Z,27.58
2023-04-16T23:44:31.346Z,29.10
2023-04-16T23:46:58.399Z,27.77
2023-04-16T23:49:25.459Z,25.35
2023-04-16T23:51:52.367Z,26.80
2023-04-16T23:54:19.536Z,26.33
2023-04-16T23:56:46.544Z,27.65
2023-04-16T23:59:13.870Z,27.40
